Here is the Quick Look data you requested

The Data originates at the National Weather Service, and is made available here by the UAlbany Department of Atmospheric and Environmental Sciences

Surface Observations

PHBK 142056Z AUTO 36010KT 10SM CLR 24/11 A3011 RMK AO2 SLP198 T02390111 58003 $=
PHHI 142056Z AUTO 05017G23KT 10SM SCT046 21/13 A3013 RMK AO2 SLPNO T02130129
 58001 FZRANO $=
PHJH 142045Z 03017G27KT 15SM -RA SCT030 BKN050 19/16 A3009=
PHJR 142053Z 03010G18KT 10SM BKN047 BKN055 23/13 A3011 RMK AO2 SLP201 T02330128
 50000=
PHKO 142053Z 03025G32KT 10SM CLR 27/12 A2997 RMK AO2 PK WND 02037/2006 SLP149
 T02720122 58010=
PHLI 142053Z 02025G32KT 10SM SCT042 22/13 A3015 RMK AO2 PK WND 03034/2018
 SLP207 T02170128 50006 $=
PHMK 142054Z 02013G22KT 10SM SCT033 23/14 A3009 RMK AO2 PK WND 36026/2001
 SLP194 T02280144 50002=
PHNL 142053Z 01013G22KT 10SM FEW029 SCT046 25/12 A3009 RMK AO2 SLP190 T02500122
 50003=
PHNY 142056Z AUTO 05022G29KT 10SM SCT020 BKN029 BKN036 20/15 A3008 RMK AO2 PK
 WND 05031/1958 RAB28E51 SLP172 P0000 60000 T02000150 58007=
PHOG 142054Z 04021G25KT 10SM SCT035 SCT055 26/16 A3008 RMK AO2 PK WND
 03027/2036 SLP192 T02560156 50003=
PHSF 142056Z AUTO 24011G19KT 10SM CLR 16/00 A3024 RMK AO2 SLPNO WND DATA ESTMD
 T01570001 58009 $=
PHTO 142053Z 01015G25KT 10SM SCT033 BKN041 OVC060 23/16 A3005 RMK AO2 SLP173
 60000 T02280161 58003=
PMDY 142056Z AUTO 18012KT 10SM CLR 24/17 A3016 RMK AO2 SLP214 T02390167 52014=